Aérodrome :
LOGIN :

S'inscrire | Disclaimer

   EN    FR    IT 

 










Légende :    VFR   VFR Marginal   IFR   IFR Intensif   IFR Très Intensif
Visi : 
Plafond : 
>= 8 km
>= 3000ft
5 à 8 km
1000 à 3000 ft
1500m à 5 km
500 à 1000 ft
800 à 1500m
200 à 500 ft
< 800m
< 200 ft
Symboles :   Orages  Brouillard  Fortes neiges  Fortes précipitations  Vent > 20 kt
SIGMETs :   Divers  Orages  Givrage  Turbulence  Onde Orograph.  Cendres Volcan.






- Altitude de l'aérodrome : 26 ft
- Code IATA : BIA


LFKB - Bastia

DERNIER METAR :
  • 282200Z AUTO 23003KT CAVOK 17/10 Q1020 NOSIG

METARs EXPIRÉS :
  • 282130Z AUTO 23006KT CAVOK 18/11 Q1020 NOSIG
  • 282100Z AUTO 22003KT CAVOK 16/11 Q1021 NOSIG
  • 282030Z AUTO 20002KT CAVOK 16/11 Q1021 NOSIG
  • 282000Z AUTO 22003KT CAVOK 17/11 Q1021 NOSIG
  • 281930Z AUTO VRB02KT CAVOK 19/10 Q1021 NOSIG

TAF TAF LFKB
Valide du 28 à 21h jusqu'au 29 à 21h UTC


282000Z 2821/2921 24005KT CAVOK TX23/2915Z TN14/2903Z
BECMG 2905/2907 SHRA SCT020 SCT050TCU
TEMPO 2908/2914 VRB10G20KT TSRA BKN017 BKN040CB BKN070
BECMG 2915/2916 NSW NSC
ATIS : +33 4 95 59 19 40



MET'MAP, la Météo Aéronautique d'un coup d'oeil ! - Copyright ORBIFLY Décembre 2007 - Disclaimer

ORBIFLY MET'MAP TEAM :

Programmation & Développement : Alexandra Zaïnal
Sur une idée originale de : Baudouin d'Aumeries
Assistance à la programmation : Marc-Olivier Méhu
Soutien technique & logistique : Manuel Goepfert

Contact : metmap@orbifly.com




SOURCES & CREDITS :

   NOAA